createdAt,value
2018-05-11T00:03:31.157Z,12.60
2018-05-11T00:09:35.640Z,12.60
2018-05-11T00:15:40.000Z,12.60
2018-05-11T00:21:44.388Z,12.50
2018-05-11T00:27:49.173Z,12.50
2018-05-11T00:33:53.985Z,12.40
2018-05-11T00:39:58.380Z,12.40
2018-05-11T00:46:03.489Z,12.20
2018-05-11T00:52:07.858Z,12.20
2018-05-11T00:58:12.964Z,12.10
2018-05-11T01:04:17.379Z,12.10
2018-05-11T01:10:21.881Z,12.20
2018-05-11T01:16:26.510Z,12.20
2018-05-11T01:22:30.946Z,12.30
2018-05-11T01:28:36.113Z,12.20
2018-05-11T01:34:40.460Z,12.20
2018-05-11T01:40:44.801Z,12.30
2018-05-11T01:46:49.571Z,12.30
2018-05-11T01:52:54.005Z,12.40
2018-05-11T01:58:58.495Z,12.40
2018-05-11T02:05:02.859Z,12.30
2018-05-11T02:11:07.231Z,12.20
2018-05-11T02:17:11.571Z,12.20
2018-05-11T02:23:15.920Z,12.10
2018-05-11T02:29:21.418Z,11.80
2018-05-11T02:35:26.560Z,11.80
2018-05-11T02:41:30.913Z,11.80
2018-05-11T02:47:35.287Z,11.90
2018-05-11T02:53:39.633Z,11.90
2018-05-11T02:59:44.812Z,11.90
2018-05-11T03:05:49.949Z,11.90
2018-05-11T03:11:55.053Z,11.90
2018-05-11T03:17:59.432Z,11.90
2018-05-11T03:24:03.806Z,11.90
2018-05-11T03:30:08.288Z,12.00
2018-05-11T03:36:12.650Z,12.00
2018-05-11T03:42:17.006Z,12.00
2018-05-11T03:48:21.575Z,12.10
2018-05-11T03:54:26.854Z,12.10
2018-05-11T04:00:31.406Z,12.10
2018-05-11T04:06:53.517Z,12.20
2018-05-11T04:12:57.877Z,12.20
2018-05-11T04:19:02.220Z,12.30
2018-05-11T04:25:06.674Z,12.40
2018-05-11T04:31:11.793Z,12.50
2018-05-11T04:37:16.235Z,12.40
2018-05-11T04:43:20.746Z,12.50
2018-05-11T04:49:25.258Z,12.60
2018-05-11T04:55:29.621Z,12.70
2018-05-11T05:01:33.984Z,12.80
2018-05-11T05:07:38.345Z,12.90
2018-05-11T05:13:42.775Z,13.00
2018-05-11T05:19:47.114Z,13.00
2018-05-11T05:25:51.788Z,13.10
2018-05-11T05:31:56.163Z,13.30
2018-05-11T05:38:00.563Z,13.60
2018-05-11T05:44:05.075Z,13.80
2018-05-11T05:50:10.217Z,13.90
2018-05-11T05:56:14.563Z,13.90
2018-05-11T06:02:18.996Z,14.00
2018-05-11T06:08:24.450Z,14.30
2018-05-11T06:14:28.795Z,14.30
2018-05-11T06:20:33.927Z,14.60
2018-05-11T06:26:39.101Z,14.50
2018-05-11T06:32:43.485Z,14.50
2018-05-11T06:38:47.827Z,14.60
2018-05-11T06:44:52.596Z,14.60
2018-05-11T06:50:57.033Z,14.60
2018-05-11T06:57:01.379Z,14.60
2018-05-11T07:03:05.734Z,14.70
2018-05-11T07:09:10.847Z,14.70
2018-05-11T07:15:15.249Z,14.70
2018-05-11T07:21:20.336Z,15.20
2018-05-11T07:27:25.971Z,15.90
2018-05-11T07:33:30.329Z,15.90
2018-05-11T07:39:34.696Z,16.10
2018-05-11T07:45:39.094Z,16.20
2018-05-11T07:51:43.496Z,16.00
2018-05-11T07:57:48.621Z,16.10
2018-05-11T08:03:53.092Z,16.10
2018-05-11T08:09:58.297Z,16.60
2018-05-11T08:16:02.646Z,16.60
2018-05-11T08:22:07.770Z,17.20
2018-05-11T08:28:12.121Z,17.20
2018-05-11T08:34:16.468Z,18.00
2018-05-11T08:40:22.142Z,18.70
2018-05-11T08:46:26.732Z,18.30
2018-05-11T08:52:31.076Z,17.90
2018-05-11T08:58:35.424Z,17.90
2018-05-11T09:04:39.906Z,18.10
2018-05-11T09:10:44.273Z,18.20
2018-05-11T09:16:49.582Z,18.00
2018-05-11T09:22:54.673Z,18.00
2018-05-11T09:28:59.907Z,17.20
2018-05-11T09:35:04.364Z,17.10
2018-05-11T09:41:08.703Z,17.40
2018-05-11T09:47:13.825Z,18.90
2018-05-11T09:53:18.183Z,18.90
2018-05-11T09:59:22.632Z,19.80
2018-05-11T10:05:28.190Z,20.20
2018-05-11T10:11:33.323Z,20.30
2018-05-11T10:17:38.474Z,20.60
2018-05-11T10:23:42.834Z,20.60
2018-05-11T10:29:47.446Z,21.10
2018-05-11T10:35:52.298Z,21.40
2018-05-11T10:41:56.652Z,21.80
2018-05-11T10:48:01.781Z,21.20
2018-05-11T10:54:06.221Z,21.20
2018-05-11T11:00:11.355Z,23.40
2018-05-11T11:06:15.708Z,23.40
2018-05-11T11:12:21.366Z,23.90
2018-05-11T11:18:25.833Z,22.20
2018-05-11T11:24:30.183Z,21.60
2018-05-11T11:30:34.540Z,21.00
2018-05-11T11:36:38.887Z,22.80
2018-05-11T11:42:44.121Z,23.60
2018-05-11T11:48:48.485Z,23.50
2018-05-11T11:54:53.894Z,25.20
2018-05-11T12:00:58.232Z,24.20
2018-05-11T12:07:03.871Z,21.80
2018-05-11T12:13:08.228Z,21.70
2018-05-11T12:19:12.582Z,21.00
2018-05-11T12:25:17.688Z,21.00
2018-05-11T12:31:22.052Z,21.00
2018-05-11T12:37:26.416Z,21.10
2018-05-11T12:43:30.830Z,21.70
2018-05-11T12:49:35.173Z,22.40
2018-05-11T12:55:40.293Z,22.10
2018-05-11T13:01:44.635Z,22.10
2018-05-11T13:07:49.808Z,21.40
2018-05-11T13:13:55.040Z,21.30
2018-05-11T13:19:59.392Z,21.30
2018-05-11T13:26:04.610Z,21.50
2018-05-11T13:32:09.819Z,21.50
2018-05-11T13:38:14.170Z,21.50
2018-05-11T13:44:19.281Z,21.70
2018-05-11T13:50:23.889Z,21.70
2018-05-11T13:56:28.273Z,22.70
2018-05-11T14:02:32.624Z,22.20
2018-05-11T14:08:36.978Z,22.40
2018-05-11T14:14:41.343Z,22.10
2018-05-11T14:20:46.468Z,21.90
2018-05-11T14:26:51.902Z,21.90
2018-05-11T14:32:56.246Z,22.00
2018-05-11T14:39:00.584Z,22.90
2018-05-11T14:45:04.939Z,23.70
2018-05-11T14:51:09.400Z,23.40
2018-05-11T14:57:13.743Z,22.80
2018-05-11T15:03:18.101Z,22.30
2018-05-11T15:09:23.623Z,22.10
2018-05-11T15:15:28.816Z,21.30
2018-05-11T15:21:33.195Z,21.30
2018-05-11T15:27:37.544Z,21.00
2018-05-11T15:33:41.958Z,20.80
2018-05-11T15:39:46.315Z,20.80
2018-05-11T15:45:50.864Z,21.00
2018-05-11T15:51:55.283Z,21.10
2018-05-11T15:57:59.913Z,21.00
2018-05-11T16:04:04.328Z,20.80
2018-05-11T16:10:08.735Z,20.60
2018-05-11T16:16:13.107Z,20.60
2018-05-11T16:22:18.957Z,20.40
2018-05-11T16:28:23.745Z,20.40
2018-05-11T16:34:28.027Z,20.50
2018-05-11T16:40:32.485Z,20.60
2018-05-11T16:46:36.909Z,20.60
2018-05-11T16:52:41.264Z,20.60
2018-05-11T16:58:45.613Z,20.90
2018-05-11T17:04:50.033Z,20.40
2018-05-11T17:10:54.473Z,20.00
2018-05-11T17:16:58.869Z,19.80
2018-05-11T17:23:03.226Z,19.70
2018-05-11T17:29:07.565Z,19.60
2018-05-11T17:35:11.899Z,19.60
2018-05-11T17:41:16.250Z,19.40
2018-05-11T17:47:20.614Z,19.30
2018-05-11T17:53:25.103Z,19.00
2018-05-11T17:59:29.452Z,18.80
2018-05-11T18:05:34.553Z,18.60
2018-05-11T18:11:39.672Z,18.50
2018-05-11T18:17:44.054Z,18.50
2018-05-11T18:23:48.389Z,18.30
2018-05-11T18:29:53.629Z,17.70
2018-05-11T18:35:57.968Z,17.70
2018-05-11T18:42:03.087Z,17.30
2018-05-11T18:48:07.484Z,17.30
2018-05-11T18:54:12.270Z,17.00
2018-05-11T19:00:16.339Z,16.80
2018-05-11T19:06:21.509Z,16.70
2018-05-11T19:12:26.028Z,16.60
2018-05-11T19:18:30.440Z,16.50
2018-05-11T19:24:34.839Z,16.40
2018-05-11T19:30:39.193Z,16.30
2018-05-11T19:36:43.556Z,16.20
2018-05-11T19:42:48.684Z,15.90
2018-05-11T19:48:53.260Z,15.90
2018-05-11T19:54:57.614Z,15.80
2018-05-11T20:01:02.730Z,15.70
2018-05-11T20:07:07.187Z,15.70
2018-05-11T20:13:11.590Z,15.60
2018-05-11T20:19:15.929Z,15.60
2018-05-11T20:25:20.436Z,15.60
2018-05-11T20:31:25.035Z,15.60
2018-05-11T20:37:29.403Z,15.60
2018-05-11T20:43:33.838Z,15.50
2018-05-11T20:49:38.196Z,15.50
2018-05-11T20:55:43.396Z,15.60
2018-05-11T21:01:47.962Z,15.60
2018-05-11T21:07:52.892Z,15.70
2018-05-11T21:13:57.342Z,15.70
2018-05-11T21:20:02.467Z,15.90
2018-05-11T21:26:06.833Z,15.80
2018-05-11T21:32:11.205Z,15.90
2018-05-11T21:38:16.479Z,15.80
2018-05-11T21:44:21.086Z,15.80
2018-05-11T21:50:26.255Z,15.70
2018-05-11T21:56:31.421Z,15.60
2018-05-11T22:02:35.794Z,15.60
2018-05-11T22:08:40.175Z,15.60
2018-05-11T22:14:44.531Z,15.60
2018-05-11T22:20:49.150Z,15.70
2018-05-11T22:26:54.285Z,15.60
2018-05-11T22:32:58.646Z,15.50
2018-05-11T22:39:03.450Z,15.50
2018-05-11T22:45:07.947Z,15.50
2018-05-11T22:51:12.882Z,15.30
2018-05-11T22:57:17.280Z,15.30
2018-05-11T23:03:22.570Z,15.20
2018-05-11T23:09:27.864Z,15.10
2018-05-11T23:15:32.257Z,15.10
2018-05-11T23:21:36.631Z,15.10
2018-05-11T23:27:41.004Z,15.10
2018-05-11T23:33:45.543Z,15.10
2018-05-11T23:39:50.110Z,15.00
2018-05-11T23:45:55.133Z,14.80
2018-05-11T23:51:59.515Z,14.80
2018-05-11T23:58:03.888Z,14.70
